createdAt,value
2023-05-02T00:00:00.898Z,53.26
2023-05-02T00:02:27.995Z,53.14
2023-05-02T00:04:54.673Z,53.50
2023-05-02T00:07:21.324Z,54.29
2023-05-02T00:09:48.034Z,54.40
2023-05-02T00:12:14.698Z,53.77
2023-05-02T00:14:41.316Z,54.45
2023-05-02T00:17:08.474Z,54.34
2023-05-02T00:19:38.969Z,54.01
2023-05-02T00:22:05.565Z,54.25
2023-05-02T00:24:32.290Z,54.06
2023-05-02T00:26:58.958Z,54.09
2023-05-02T00:29:25.727Z,54.35
2023-05-02T00:31:52.457Z,54.82
2023-05-02T00:34:19.122Z,55.10
2023-05-02T00:36:45.952Z,53.76
2023-05-02T00:39:12.739Z,55.46
2023-05-02T00:41:40.437Z,54.33
2023-05-02T00:44:07.183Z,54.75
2023-05-02T00:46:33.943Z,54.97
2023-05-02T00:49:01.446Z,55.21
2023-05-02T00:51:28.182Z,55.73
2023-05-02T00:53:54.958Z,56.05
2023-05-02T00:56:21.652Z,56.06
2023-05-02T00:58:48.330Z,56.87
2023-05-02T01:01:29.986Z,56.78
2023-05-02T01:04:25.160Z,56.92
2023-05-02T01:06:52.015Z,57.28
2023-05-02T01:09:42.345Z,57.94
2023-05-02T01:12:20.972Z,57.04
2023-05-02T01:14:50.880Z,57.05
2023-05-02T01:17:17.503Z,57.13
2023-05-02T01:19:47.182Z,57.10
2023-05-02T01:22:13.776Z,56.10
2023-05-02T01:24:52.199Z,57.61
2023-05-02T01:27:41.573Z,56.47
2023-05-02T01:30:08.550Z,56.07
2023-05-02T01:32:35.218Z,55.66
2023-05-02T01:35:01.868Z,56.09
2023-05-02T01:37:29.307Z,55.51
2023-05-02T01:39:57.489Z,55.16
2023-05-02T01:42:24.223Z,55.45
2023-05-02T01:44:50.848Z,55.85
2023-05-02T01:47:17.694Z,55.90
2023-05-02T01:49:44.381Z,56.36
2023-05-02T01:52:11.586Z,56.26
2023-05-02T01:54:38.206Z,55.98
2023-05-02T01:57:06.113Z,56.95
2023-05-02T01:59:33.300Z,56.44
2023-05-02T02:01:59.968Z,55.14
2023-05-02T02:04:26.628Z,55.40
2023-05-02T02:06:58.911Z,54.83
2023-05-02T02:09:25.602Z,54.45
2023-05-02T02:12:10.975Z,53.96
2023-05-02T02:14:38.692Z,54.29
2023-05-02T02:17:09.159Z,53.81
2023-05-02T02:19:35.988Z,53.54
2023-05-02T02:22:03.101Z,53.20
2023-05-02T02:24:29.803Z,53.34
2023-05-02T02:26:56.470Z,53.26
2023-05-02T02:29:23.185Z,52.69
2023-05-02T02:31:50.257Z,52.67
2023-05-02T02:34:16.852Z,52.56
2023-05-02T02:36:46.325Z,53.46
2023-05-02T02:39:21.546Z,52.42
2023-05-02T02:42:10.330Z,52.24
2023-05-02T02:44:42.876Z,52.33
2023-05-02T02:47:15.462Z,52.49
2023-05-02T02:49:55.404Z,52.15
2023-05-02T02:52:30.337Z,52.11
2023-05-02T02:55:02.299Z,52.39
2023-05-02T02:57:37.913Z,52.20
2023-05-02T03:00:13.593Z,52.76
2023-05-02T03:02:40.523Z,53.26
2023-05-02T03:05:07.437Z,53.11
2023-05-02T03:07:34.072Z,53.36
2023-05-02T03:10:03.185Z,52.64
2023-05-02T03:12:29.896Z,52.80
2023-05-02T03:15:02.283Z,53.89
2023-05-02T03:17:28.993Z,54.05
2023-05-02T03:19:55.683Z,54.02
2023-05-02T03:22:22.347Z,53.47
2023-05-02T03:24:49.000Z,53.34
2023-05-02T03:27:15.648Z,53.38
2023-05-02T03:29:42.570Z,52.70
2023-05-02T03:32:09.336Z,53.00
2023-05-02T03:34:36.205Z,53.34
2023-05-02T03:37:02.820Z,52.03
2023-05-02T03:39:29.619Z,52.59
2023-05-02T03:41:56.293Z,52.30
2023-05-02T03:44:22.923Z,52.34
2023-05-02T03:46:49.633Z,52.01
2023-05-02T03:49:16.310Z,51.83
2023-05-02T03:51:42.977Z,52.08
2023-05-02T03:54:09.572Z,51.61
2023-05-02T03:56:36.281Z,52.11
2023-05-02T03:59:02.890Z,52.25
2023-05-02T04:01:29.547Z,51.51
2023-05-02T04:03:56.228Z,51.42
2023-05-02T04:06:22.976Z,51.84
2023-05-02T04:08:49.651Z,52.74
2023-05-02T04:11:16.322Z,52.18
2023-05-02T04:13:42.965Z,52.61
2023-05-02T04:16:09.643Z,52.75
2023-05-02T04:18:36.364Z,52.11
2023-05-02T04:21:03.015Z,52.25
2023-05-02T04:23:29.653Z,52.74
2023-05-02T04:25:56.370Z,51.66
2023-05-02T04:28:23.074Z,51.94
2023-05-02T04:30:50.101Z,52.93
2023-05-02T04:33:17.376Z,52.59
2023-05-02T04:35:44.002Z,52.67
2023-05-02T04:38:10.681Z,52.01
2023-05-02T04:40:37.380Z,52.63
2023-05-02T04:43:04.217Z,54.29
2023-05-02T04:45:30.861Z,53.29
2023-05-02T04:47:57.673Z,54.27
2023-05-02T04:50:24.493Z,54.65
2023-05-02T04:52:53.645Z,54.11
2023-05-02T04:55:20.798Z,53.30
2023-05-02T04:57:47.535Z,53.84
2023-05-02T05:00:14.452Z,53.89
2023-05-02T05:02:41.796Z,54.55
2023-05-02T05:05:08.616Z,54.77
2023-05-02T05:07:35.251Z,55.10
2023-05-02T05:10:03.355Z,54.21
2023-05-02T05:12:31.426Z,53.83
2023-05-02T05:14:59.249Z,53.77
2023-05-02T05:17:26.834Z,53.39
2023-05-02T05:19:53.680Z,54.17
2023-05-02T05:22:20.584Z,53.31
2023-05-02T05:24:56.440Z,53.83
2023-05-02T05:27:23.209Z,51.76
2023-05-02T05:29:49.960Z,53.52
2023-05-02T05:32:16.702Z,52.44
2023-05-02T05:34:47.148Z,51.75
2023-05-02T05:37:14.737Z,51.26
2023-05-02T05:39:41.841Z,50.85
2023-05-02T05:42:09.124Z,51.58
2023-05-02T05:44:36.419Z,50.69
2023-05-02T05:47:03.062Z,51.86
2023-05-02T05:49:29.756Z,50.89
2023-05-02T05:51:56.375Z,50.66
2023-05-02T05:54:23.038Z,50.75
2023-05-02T05:56:49.716Z,51.91
2023-05-02T05:59:16.334Z,51.29
2023-05-02T06:01:43.005Z,50.08
2023-05-02T06:04:09.735Z,49.48
2023-05-02T06:06:36.701Z,50.78
2023-05-02T06:09:03.635Z,50.24
2023-05-02T06:11:30.338Z,51.58
2023-05-02T06:13:57.024Z,52.37
2023-05-02T06:16:23.734Z,50.99
2023-05-02T06:18:50.813Z,48.60
2023-05-02T06:21:17.548Z,48.83
2023-05-02T06:23:44.240Z,48.21
2023-05-02T06:26:10.849Z,48.58
2023-05-02T06:28:37.427Z,48.05
2023-05-02T06:31:05.133Z,48.04
2023-05-02T06:33:32.459Z,48.04
2023-05-02T06:36:00.819Z,48.95
2023-05-02T06:38:28.427Z,48.68
2023-05-02T06:40:55.107Z,47.65
2023-05-02T06:43:21.773Z,47.81
2023-05-02T06:45:48.456Z,47.98
2023-05-02T06:48:15.105Z,47.12
2023-05-02T06:50:41.907Z,47.07
2023-05-02T06:53:08.547Z,47.95
2023-05-02T06:55:35.224Z,46.85
2023-05-02T06:58:02.164Z,46.41
2023-05-02T07:00:28.801Z,46.55
2023-05-02T07:02:55.588Z,48.17
2023-05-02T07:05:22.261Z,46.21
2023-05-02T07:07:48.919Z,46.25
2023-05-02T07:10:15.584Z,47.20
2023-05-02T07:12:42.270Z,46.54
2023-05-02T07:15:08.979Z,45.41
2023-05-02T07:17:35.752Z,46.68
2023-05-02T07:20:02.756Z,46.71
2023-05-02T07:22:29.691Z,46.46
2023-05-02T07:25:03.339Z,46.02
2023-05-02T07:27:30.034Z,45.88
2023-05-02T07:29:56.691Z,46.03
2023-05-02T07:32:23.436Z,45.64
2023-05-02T07:34:50.180Z,45.95
2023-05-02T07:37:16.784Z,44.92
2023-05-02T07:39:43.610Z,45.88
2023-05-02T07:42:10.291Z,45.20
2023-05-02T07:44:36.958Z,45.50
2023-05-02T07:47:03.605Z,45.42
2023-05-02T07:49:30.294Z,45.63
2023-05-02T07:51:57.184Z,45.31
2023-05-02T07:54:23.797Z,44.07
2023-05-02T07:56:50.453Z,43.97
2023-05-02T07:59:17.057Z,44.55
2023-05-02T08:01:43.671Z,44.22
2023-05-02T08:04:10.670Z,44.09
2023-05-02T08:06:37.890Z,44.21
2023-05-02T08:09:04.764Z,44.22
2023-05-02T08:11:31.430Z,43.14
2023-05-02T08:13:58.066Z,43.00
2023-05-02T08:16:24.774Z,42.26
2023-05-02T08:18:51.424Z,41.92
2023-05-02T08:21:18.147Z,42.74
2023-05-02T08:23:44.784Z,42.33
2023-05-02T08:26:11.441Z,42.08
2023-05-02T08:28:38.109Z,41.38
2023-05-02T08:31:04.745Z,42.72
2023-05-02T08:33:31.518Z,41.17
2023-05-02T08:35:58.184Z,41.24
2023-05-02T08:38:24.837Z,41.68
2023-05-02T08:40:51.446Z,41.91
2023-05-02T08:43:18.093Z,42.06
2023-05-02T08:45:44.973Z,42.42
2023-05-02T08:48:12.838Z,41.31
2023-05-02T08:50:40.129Z,41.06
2023-05-02T08:53:06.821Z,41.33
2023-05-02T08:55:34.565Z,40.92
2023-05-02T08:58:01.216Z,41.46
2023-05-02T09:00:27.891Z,41.80
2023-05-02T09:03:23.277Z,41.45
2023-05-02T09:05:54.274Z,40.60
2023-05-02T09:08:24.091Z,41.72
2023-05-02T09:10:50.929Z,41.04
2023-05-02T09:13:40.006Z,39.13
2023-05-02T09:16:22.319Z,40.19
2023-05-02T09:18:50.086Z,39.94
2023-05-02T09:21:20.603Z,41.74
2023-05-02T09:23:48.998Z,40.68
2023-05-02T09:26:24.968Z,40.55
2023-05-02T09:28:52.994Z,41.57
2023-05-02T09:31:43.483Z,40.02
2023-05-02T09:34:16.666Z,39.92
2023-05-02T09:36:47.806Z,39.02
2023-05-02T09:39:19.407Z,38.60
2023-05-02T09:41:46.802Z,38.91
2023-05-02T09:44:17.693Z,38.10
2023-05-02T09:46:54.564Z,37.37
2023-05-02T09:49:39.545Z,36.96
2023-05-02T09:52:16.556Z,37.31
2023-05-02T09:54:43.240Z,38.09
2023-05-02T09:57:09.895Z,37.24
2023-05-02T09:59:36.550Z,34.83
2023-05-02T10:02:04.311Z,36.32
2023-05-02T10:04:32.191Z,37.36
2023-05-02T10:06:58.934Z,37.67
2023-05-02T10:09:26.024Z,37.15
2023-05-02T10:11:53.616Z,36.62
2023-05-02T10:14:22.790Z,36.95
2023-05-02T10:17:20.671Z,36.73
2023-05-02T10:20:00.796Z,35.70
2023-05-02T10:22:27.414Z,36.31
2023-05-02T10:24:54.077Z,35.95
2023-05-02T10:27:20.725Z,36.86
2023-05-02T10:29:47.324Z,35.36
2023-05-02T10:32:17.031Z,36.46
2023-05-02T10:34:43.657Z,36.05
2023-05-02T10:37:10.300Z,35.99
2023-05-02T10:39:36.911Z,34.69
2023-05-02T10:42:03.627Z,34.59
2023-05-02T10:44:37.220Z,34.70
2023-05-02T10:47:19.537Z,34.29
2023-05-02T10:50:02.544Z,34.08
2023-05-02T10:52:30.609Z,32.54
2023-05-02T10:55:19.424Z,32.78
2023-05-02T10:57:58.158Z,32.41
2023-05-02T11:00:28.813Z,33.32
2023-05-02T11:02:55.562Z,34.43
2023-05-02T11:05:22.829Z,31.60
2023-05-02T11:07:49.490Z,32.03
2023-05-02T11:10:19.292Z,31.98
2023-05-02T11:12:50.094Z,34.17
2023-05-02T11:15:28.984Z,33.49
2023-05-02T11:18:04.925Z,32.59
2023-05-02T11:20:31.634Z,33.59
2023-05-02T11:23:13.904Z,33.61
2023-05-02T11:25:45.033Z,33.95
2023-05-02T11:28:42.303Z,32.94
2023-05-02T11:31:09.857Z,32.79
2023-05-02T11:33:36.518Z,33.43
2023-05-02T11:36:03.304Z,33.55
2023-05-02T11:38:39.237Z,33.12
2023-05-02T11:41:06.015Z,33.22
2023-05-02T11:43:32.906Z,32.68
2023-05-02T11:46:00.366Z,33.39
2023-05-02T11:48:27.217Z,34.32
2023-05-02T11:50:55.675Z,33.38
2023-05-02T11:53:26.377Z,33.66
2023-05-02T11:55:54.788Z,32.94
2023-05-02T11:58:25.789Z,33.19
2023-05-02T12:00:52.653Z,33.30
2023-05-02T12:03:30.573Z,31.05
2023-05-02T12:05:58.060Z,33.14
2023-05-02T12:08:27.215Z,32.41
2023-05-02T12:10:56.997Z,32.67
2023-05-02T12:13:24.939Z,34.13
2023-05-02T12:15:51.968Z,33.13
2023-05-02T12:18:20.729Z,32.91
2023-05-02T12:20:48.655Z,32.14
2023-05-02T12:23:15.450Z,31.79
2023-05-02T12:25:42.423Z,31.72
2023-05-02T12:28:09.696Z,32.34
2023-05-02T12:30:37.624Z,31.95
2023-05-02T12:33:04.334Z,30.99
2023-05-02T12:35:31.335Z,30.32
2023-05-02T12:38:10.870Z,30.56
2023-05-02T12:40:37.479Z,30.81
2023-05-02T12:43:04.828Z,30.88
2023-05-02T12:45:31.489Z,32.00
2023-05-02T12:47:58.120Z,31.79
2023-05-02T12:50:38.169Z,31.16
2023-05-02T12:53:04.818Z,33.45
2023-05-02T12:55:31.485Z,31.57
2023-05-02T12:58:08.257Z,32.82
2023-05-02T13:00:39.056Z,32.40
2023-05-02T13:03:05.909Z,33.25
2023-05-02T13:05:32.691Z,31.58
2023-05-02T13:07:59.338Z,31.75
2023-05-02T13:10:26.282Z,31.06
2023-05-02T13:12:53.905Z,33.50
2023-05-02T13:15:20.720Z,32.21
2023-05-02T13:17:47.585Z,32.99
2023-05-02T13:20:14.725Z,31.79
2023-05-02T13:22:41.380Z,31.77
2023-05-02T13:25:08.672Z,31.30
2023-05-02T16:13:37.905Z,16.92
2023-05-02T16:16:04.681Z,16.08
2023-05-02T16:18:31.409Z,16.52
2023-05-02T16:20:58.038Z,14.77
2023-05-02T16:23:25.111Z,15.63
2023-05-02T16:26:00.928Z,14.79
2023-05-02T16:28:27.593Z,17.17
2023-05-02T16:30:54.327Z,19.34
2023-05-02T16:33:21.126Z,21.77
2023-05-02T16:35:48.007Z,23.68
2023-05-02T16:38:14.657Z,25.15
2023-05-02T16:40:41.360Z,26.02
2023-05-02T16:43:07.965Z,25.90
2023-05-02T16:45:34.615Z,25.51
2023-05-02T16:48:01.378Z,25.39
2023-05-02T16:50:28.069Z,25.96
2023-05-02T16:52:54.682Z,27.06
2023-05-02T16:55:21.481Z,27.23
2023-05-02T16:57:48.164Z,27.52
2023-05-02T17:00:15.189Z,28.64
2023-05-02T17:02:41.901Z,28.85
2023-05-02T17:05:09.112Z,29.27
2023-05-02T17:07:35.761Z,29.44
2023-05-02T17:10:02.522Z,29.84
2023-05-02T17:12:29.350Z,30.30
2023-05-02T17:14:56.094Z,30.96
2023-05-02T17:17:22.789Z,30.80
2023-05-02T17:19:49.737Z,30.86
2023-05-02T17:22:17.093Z,31.47
2023-05-02T17:24:43.737Z,32.07
2023-05-02T17:27:10.378Z,32.06
2023-05-02T17:29:37.056Z,32.57
2023-05-02T17:32:03.654Z,33.13
2023-05-02T17:34:30.288Z,33.57
2023-05-02T17:36:56.910Z,33.51
2023-05-02T17:39:23.540Z,32.76
2023-05-02T17:41:50.219Z,32.26
2023-05-02T17:44:16.901Z,31.83
2023-05-02T17:46:43.657Z,31.80
2023-05-02T17:49:10.359Z,31.33
2023-05-02T17:51:37.080Z,32.06
2023-05-02T17:54:03.784Z,31.89
2023-05-02T17:56:30.475Z,31.66
2023-05-02T17:58:57.226Z,32.26
2023-05-02T18:01:24.117Z,32.58
2023-05-02T18:03:50.823Z,32.89
2023-05-02T18:06:18.268Z,32.69
2023-05-02T18:08:45.177Z,33.10
2023-05-02T18:11:18.455Z,33.92
2023-05-02T18:13:45.159Z,33.54
2023-05-02T18:16:11.885Z,34.09
2023-05-02T18:18:38.612Z,34.11
2023-05-02T18:21:05.299Z,34.12
2023-05-02T18:23:35.131Z,34.92
2023-05-02T18:26:01.825Z,35.15
2023-05-02T18:28:28.464Z,35.80
2023-05-02T18:30:55.187Z,36.46
2023-05-02T18:33:21.908Z,36.61
2023-05-02T18:35:48.669Z,36.94
2023-05-02T18:38:15.274Z,37.30
2023-05-02T18:40:42.391Z,37.32
2023-05-02T18:43:09.187Z,37.85
2023-05-02T18:45:35.827Z,38.34
2023-05-02T18:48:02.564Z,38.41
2023-05-02T18:50:29.231Z,38.11
2023-05-02T18:52:55.896Z,37.88
2023-05-02T18:55:24.182Z,38.42
2023-05-02T18:57:51.484Z,37.94
2023-05-02T19:00:18.565Z,38.64
2023-05-02T19:02:45.291Z,37.92
2023-05-02T19:05:11.992Z,37.21
2023-05-02T19:07:38.778Z,37.54
2023-05-02T19:10:10.182Z,37.62
2023-05-02T19:12:36.920Z,37.40
2023-05-02T19:15:04.215Z,37.45
2023-05-02T19:17:31.043Z,37.10
2023-05-02T19:19:58.335Z,37.39
2023-05-02T19:22:25.046Z,37.39
2023-05-02T19:24:51.712Z,37.47
2023-05-02T19:27:18.323Z,37.06
2023-05-02T19:29:45.000Z,37.06
2023-05-02T19:32:11.742Z,37.49
2023-05-02T19:34:38.417Z,37.23
2023-05-02T19:37:05.070Z,37.41
2023-05-02T19:39:31.863Z,36.73
2023-05-02T19:41:58.540Z,37.14
2023-05-02T19:44:25.270Z,37.36
2023-05-02T19:46:52.083Z,37.12
2023-05-02T19:49:18.696Z,37.27
2023-05-02T19:51:45.317Z,36.72
2023-05-02T19:54:11.931Z,36.59
2023-05-02T19:56:38.589Z,36.92
2023-05-02T19:59:05.589Z,37.09
2023-05-02T20:01:32.440Z,36.96
2023-05-02T20:03:59.124Z,37.18
2023-05-02T20:06:26.016Z,37.31
2023-05-02T20:08:52.681Z,37.20
2023-05-02T20:11:19.542Z,36.62
2023-05-02T20:13:46.151Z,37.14
2023-05-02T20:16:13.674Z,36.99
2023-05-02T20:18:40.489Z,37.61
2023-05-02T20:21:07.187Z,36.99
2023-05-02T20:23:34.026Z,37.12
2023-05-02T20:26:00.695Z,37.24
2023-05-02T20:28:27.322Z,37.29
2023-05-02T20:30:54.066Z,36.77
2023-05-02T20:33:23.056Z,37.97
2023-05-02T20:35:54.490Z,37.39
2023-05-02T20:38:21.230Z,37.37
2023-05-02T20:40:47.867Z,37.28
2023-05-02T20:43:14.500Z,37.31
2023-05-02T20:45:41.277Z,37.81
2023-05-02T20:48:08.253Z,38.01
2023-05-02T20:50:34.961Z,38.19
2023-05-02T20:53:01.654Z,38.21
2023-05-02T20:55:28.482Z,38.16
2023-05-02T20:57:55.124Z,38.49
2023-05-02T21:00:21.715Z,38.14
2023-05-02T21:02:48.409Z,38.68
2023-05-02T21:05:15.132Z,37.73
2023-05-02T21:07:41.813Z,37.74
2023-05-02T21:10:09.074Z,37.61
2023-05-02T21:12:35.758Z,37.87
2023-05-02T21:15:02.444Z,37.82
2023-05-02T21:17:29.097Z,37.55
2023-05-02T21:19:55.737Z,37.15
2023-05-02T21:22:22.406Z,37.60
2023-05-02T21:24:49.051Z,38.06
2023-05-02T21:27:16.052Z,37.80
2023-05-02T21:29:42.691Z,38.19
2023-05-02T21:32:09.397Z,38.48
2023-05-02T21:34:36.137Z,38.94
2023-05-02T21:37:02.836Z,39.04
2023-05-02T21:39:29.480Z,40.06
2023-05-02T21:41:56.141Z,40.38
2023-05-02T21:44:22.749Z,40.51
2023-05-02T21:46:50.208Z,41.21
2023-05-02T21:49:16.933Z,40.91
2023-05-02T21:51:43.603Z,41.05
2023-05-02T21:54:10.241Z,41.31
2023-05-02T21:56:36.925Z,41.68
2023-05-02T21:59:03.587Z,41.40
2023-05-02T22:01:30.372Z,41.70
2023-05-02T22:03:57.073Z,41.84
2023-05-02T22:06:23.770Z,41.56
2023-05-02T22:08:50.395Z,41.67
2023-05-02T22:11:17.010Z,41.87
2023-05-02T22:13:43.622Z,41.99
2023-05-02T22:16:10.398Z,42.11
2023-05-02T22:18:37.398Z,42.27
2023-05-02T22:21:04.051Z,42.89
2023-05-02T22:23:30.868Z,42.55
2023-05-02T22:25:57.594Z,43.03
2023-05-02T22:28:24.407Z,43.23
2023-05-02T22:30:51.208Z,42.75
2023-05-02T22:33:17.876Z,42.31
2023-05-02T22:35:44.548Z,42.64
2023-05-02T22:38:14.197Z,42.98
2023-05-02T22:40:40.868Z,43.04
2023-05-02T22:43:07.501Z,43.05
2023-05-02T22:45:35.691Z,43.52
2023-05-02T22:48:02.486Z,43.75
2023-05-02T22:50:29.133Z,44.03
2023-05-02T22:52:55.733Z,44.37
2023-05-02T22:55:22.514Z,44.52
2023-05-02T22:57:49.169Z,44.92
2023-05-02T23:00:15.842Z,44.36
2023-05-02T23:02:42.562Z,44.72
2023-05-02T23:05:09.339Z,44.82
2023-05-02T23:07:35.996Z,45.48
2023-05-02T23:10:02.918Z,45.61
2023-05-02T23:12:29.786Z,46.24
2023-05-02T23:14:56.462Z,46.49
2023-05-02T23:17:23.250Z,46.57
2023-05-02T23:19:50.133Z,46.53
2023-05-02T23:22:16.896Z,46.12
2023-05-02T23:24:45.541Z,46.47
2023-05-02T23:27:12.209Z,46.47
2023-05-02T23:29:39.097Z,46.27
2023-05-02T23:32:05.719Z,46.12
2023-05-02T23:34:32.321Z,46.33
2023-05-02T23:36:58.969Z,46.55
2023-05-02T23:39:26.000Z,46.14
2023-05-02T23:41:52.615Z,46.44
2023-05-02T23:44:19.246Z,46.94
2023-05-02T23:46:45.996Z,47.95
2023-05-02T23:49:13.106Z,47.86
2023-05-02T23:51:39.761Z,48.09
2023-05-02T23:54:06.487Z,48.36
2023-05-02T23:56:33.163Z,49.10
2023-05-02T23:58:59.834Z,49.37
